createdAt,value
2022-09-28T00:00:47.634Z,2.90
2022-09-28T00:01:49.441Z,3.38
2022-09-28T00:02:51.417Z,3.17
2022-09-28T00:03:58.360Z,3.47
2022-09-28T00:05:00.054Z,3.50
2022-09-28T00:06:08.082Z,3.25
2022-09-28T00:07:09.812Z,3.20
2022-09-28T00:08:11.453Z,3.10
2022-09-28T00:09:14.375Z,2.53
2022-09-28T00:10:16.202Z,3.30
2022-09-28T00:11:19.349Z,3.67
2022-09-28T00:12:21.899Z,3.75
2022-09-28T00:13:24.728Z,3.50
2022-09-28T00:14:26.582Z,3.80
2022-09-28T00:15:28.254Z,3.90
2022-09-28T00:16:33.080Z,3.95
2022-09-28T00:17:36.513Z,3.90
2022-09-28T00:18:38.182Z,4.28
2022-09-28T00:19:44.104Z,3.65
2022-09-28T00:20:45.762Z,3.88
2022-09-28T00:21:48.105Z,3.15
2022-09-28T00:22:49.842Z,3.05
2022-09-28T00:24:12.009Z,2.80
2022-09-28T00:25:13.819Z,2.60
2022-09-28T00:26:15.502Z,2.80
2022-09-28T00:27:18.203Z,2.80
2022-09-28T00:28:19.825Z,2.50
2022-09-28T00:29:32.663Z,2.50
2022-09-28T00:30:34.350Z,2.55
2022-09-28T00:31:37.029Z,2.75
2022-09-28T00:32:38.755Z,3.10
2022-09-28T00:33:40.827Z,3.20
2022-09-28T00:34:46.093Z,3.20
2022-09-28T00:35:54.705Z,2.90
2022-09-28T00:36:56.363Z,2.85
2022-09-28T00:37:58.029Z,3.03
2022-09-28T00:39:03.218Z,3.20
2022-09-28T00:40:05.473Z,3.08
2022-09-28T00:41:08.288Z,2.97
2022-09-28T00:42:24.321Z,3.42
2022-09-28T00:43:28.199Z,3.00
2022-09-28T00:44:46.018Z,3.28
2022-09-28T00:45:59.197Z,3.28
2022-09-28T00:47:38.101Z,2.90
2022-09-28T00:48:47.415Z,3.30
2022-09-28T00:50:07.709Z,3.33
2022-09-28T00:51:12.787Z,3.30
2022-09-28T00:53:07.384Z,3.20
2022-09-28T00:54:09.806Z,2.65
2022-09-28T00:55:22.239Z,3.05
2022-09-28T00:56:27.159Z,2.83
2022-09-28T00:57:29.979Z,3.15
2022-09-28T00:58:36.547Z,2.70
2022-09-28T00:59:38.308Z,2.90
2022-09-28T01:00:43.341Z,3.20
2022-09-28T01:01:45.250Z,2.80
2022-09-28T01:02:47.916Z,2.63
2022-09-28T01:03:49.637Z,2.40
2022-09-28T01:04:52.339Z,2.70
2022-09-28T01:05:57.571Z,2.50
2022-09-28T01:06:59.345Z,2.80
2022-09-28T01:08:02.289Z,2.58
2022-09-28T01:09:07.747Z,2.60
2022-09-28T01:10:09.942Z,2.38
2022-09-28T01:11:11.643Z,2.50
2022-09-28T01:12:13.334Z,2.33
2022-09-28T01:13:16.675Z,2.40
2022-09-28T01:14:19.381Z,2.33
2022-09-28T01:15:22.246Z,2.45
2022-09-28T01:17:01.166Z,2.20
2022-09-28T01:18:27.196Z,2.35
2022-09-28T01:20:07.118Z,2.35
2022-09-28T01:21:23.892Z,2.40
2022-09-28T01:22:52.249Z,2.42
2022-09-28T01:24:31.152Z,2.63
2022-09-28T01:25:48.009Z,2.60
2022-09-28T01:26:52.448Z,2.35
2022-09-28T01:28:04.457Z,2.78
2022-09-28T01:29:21.788Z,3.03
2022-09-28T01:30:23.582Z,2.90
2022-09-28T01:31:28.468Z,3.00
2022-09-28T01:32:36.927Z,3.10
2022-09-28T01:33:55.624Z,3.10
2022-09-28T01:35:21.194Z,3.30
2022-09-28T01:36:30.324Z,3.50
2022-09-28T01:37:42.283Z,2.78
2022-09-28T01:38:49.438Z,2.75
2022-09-28T01:39:52.841Z,2.90
2022-09-28T01:40:56.699Z,2.85
2022-09-28T01:42:05.256Z,2.90
2022-09-28T01:43:26.026Z,2.60
2022-09-28T01:44:31.993Z,2.58
2022-09-28T01:45:40.630Z,2.70
2022-09-28T01:46:46.807Z,2.58
2022-09-28T01:47:50.008Z,3.10
2022-09-28T01:48:59.263Z,2.80
2022-09-28T01:50:07.417Z,3.03
2022-09-28T01:51:17.387Z,3.00
2022-09-28T01:52:31.810Z,3.20
2022-09-28T01:53:37.534Z,2.63
2022-09-28T01:54:46.371Z,3.00
2022-09-28T01:55:53.779Z,3.10
2022-09-28T01:57:12.189Z,2.90
2022-09-28T01:58:22.809Z,3.22
2022-09-28T01:59:28.666Z,2.95
2022-09-28T02:00:30.631Z,2.53
2022-09-28T02:01:41.532Z,3.10
2022-09-28T02:03:17.011Z,2.72
2022-09-28T02:04:24.248Z,2.70
2022-09-28T02:05:34.182Z,2.83
2022-09-28T02:06:47.821Z,2.78
2022-09-28T02:07:59.719Z,2.10
2022-09-28T02:09:11.679Z,2.30
2022-09-28T02:10:19.433Z,2.38
2022-09-28T02:11:22.628Z,2.13
2022-09-28T02:12:31.861Z,1.80
2022-09-28T02:13:37.668Z,1.80
2022-09-28T02:14:41.535Z,1.95
2022-09-28T02:15:49.950Z,1.70
2022-09-28T02:16:56.853Z,1.90
2022-09-28T02:17:58.578Z,1.88
2022-09-28T02:19:01.148Z,2.22
2022-09-28T02:20:03.469Z,1.90
2022-09-28T02:21:12.797Z,2.40
2022-09-28T02:22:28.690Z,2.28
2022-09-28T02:23:33.852Z,2.65
2022-09-28T02:24:50.856Z,2.97
2022-09-28T02:26:02.280Z,2.50
2022-09-28T02:27:13.094Z,2.40
2022-09-28T02:28:14.956Z,2.58
2022-09-28T02:29:17.043Z,2.50
2022-09-28T02:30:18.995Z,3.13
2022-09-28T02:31:20.785Z,2.80
2022-09-28T02:32:24.410Z,3.40
2022-09-28T02:33:38.353Z,2.65
2022-09-28T02:34:40.024Z,3.10
2022-09-28T02:35:42.869Z,3.03
2022-09-28T02:36:46.977Z,2.58
2022-09-28T02:37:49.989Z,2.97
2022-09-28T02:38:52.533Z,2.70
2022-09-28T02:39:54.250Z,2.50
2022-09-28T02:41:14.789Z,2.40
2022-09-28T02:42:46.485Z,2.55
2022-09-28T02:45:35.380Z,2.85
2022-09-28T02:46:45.789Z,2.33
2022-09-28T02:48:06.553Z,2.17
2022-09-28T02:49:42.524Z,2.47
2022-09-28T02:50:52.704Z,2.30
2022-09-28T02:52:19.752Z,2.58
2022-09-28T02:53:45.714Z,2.45
2022-09-28T02:54:56.086Z,2.30
2022-09-28T02:56:11.698Z,2.35
2022-09-28T02:57:19.820Z,2.35
2022-09-28T02:58:39.775Z,2.60
2022-09-28T03:00:05.701Z,2.55
2022-09-28T03:01:25.401Z,2.42
2022-09-28T03:02:53.423Z,2.28
2022-09-28T03:04:05.813Z,2.45
2022-09-28T03:05:24.534Z,2.17
2022-09-28T03:06:37.641Z,2.22
2022-09-28T03:07:46.929Z,2.28
2022-09-28T03:08:59.953Z,2.25
2022-09-28T03:10:20.675Z,2.25
2022-09-28T03:11:43.850Z,2.30
2022-09-28T03:12:48.398Z,2.08
2022-09-28T03:13:51.931Z,2.15
2022-09-28T03:15:24.317Z,2.20
2022-09-28T03:16:27.687Z,2.10
2022-09-28T03:17:29.434Z,2.20
2022-09-28T03:18:32.405Z,2.20
2022-09-28T03:19:34.811Z,1.83
2022-09-28T03:20:37.408Z,2.10
2022-09-28T03:21:39.435Z,1.92
2022-09-28T03:22:41.094Z,2.08
2022-09-28T03:23:43.253Z,2.10
2022-09-28T03:24:44.916Z,2.10
2022-09-28T03:25:46.586Z,2.33
2022-09-28T03:26:48.231Z,2.75
2022-09-28T03:27:49.893Z,4.13
2022-09-28T03:28:51.641Z,4.43
2022-09-28T03:29:53.345Z,4.68
2022-09-28T03:30:55.282Z,5.05
2022-09-28T03:31:56.997Z,4.43
2022-09-28T03:32:59.680Z,3.85
2022-09-28T03:34:01.416Z,4.95
2022-09-28T03:35:03.498Z,3.53
2022-09-28T03:36:06.074Z,2.85
2022-09-28T03:37:07.752Z,3.33
2022-09-28T03:38:09.396Z,3.38
2022-09-28T03:39:11.184Z,3.17
2022-09-28T03:40:13.041Z,3.15
2022-09-28T03:41:14.713Z,3.25
2022-09-28T03:42:16.387Z,4.05
2022-09-28T03:43:18.030Z,3.47
2022-09-28T03:44:19.887Z,3.40
2022-09-28T03:45:21.605Z,3.30
2022-09-28T03:46:23.313Z,2.90
2022-09-28T03:47:25.004Z,2.80
2022-09-28T03:48:36.661Z,3.38
2022-09-28T03:49:38.305Z,3.40
2022-09-28T03:50:40.019Z,3.30
2022-09-28T03:51:41.666Z,3.67
2022-09-28T03:52:43.648Z,3.50
2022-09-28T03:53:45.333Z,3.30
2022-09-28T03:54:49.219Z,3.15
2022-09-28T03:55:53.379Z,3.20
2022-09-28T03:56:55.057Z,3.13
2022-09-28T03:57:56.783Z,3.17
2022-09-28T03:58:58.514Z,3.33
2022-09-28T04:00:00.305Z,3.15
2022-09-28T04:01:14.144Z,3.10
2022-09-28T04:02:18.369Z,2.67
2022-09-28T04:03:20.014Z,3.13
2022-09-28T04:04:21.650Z,3.53
2022-09-28T04:05:23.319Z,2.75
2022-09-28T04:06:25.609Z,2.92
2022-09-28T04:07:30.919Z,3.33
2022-09-28T04:08:33.085Z,3.80
2022-09-28T04:09:34.816Z,3.80
2022-09-28T04:10:36.476Z,3.50
2022-09-28T04:11:59.403Z,3.47
2022-09-28T04:12:59.960Z,3.47
2022-09-28T04:14:01.658Z,3.83
2022-09-28T04:15:03.428Z,3.70
2022-09-28T04:16:05.530Z,3.78
2022-09-28T04:17:07.326Z,3.92
2022-09-28T04:18:13.691Z,4.18
2022-09-28T04:19:15.808Z,4.82
2022-09-28T04:20:18.010Z,4.30
2022-09-28T04:21:20.777Z,3.97
2022-09-28T04:22:23.479Z,4.45
2022-09-28T04:23:25.252Z,3.95
2022-09-28T04:24:26.907Z,4.20
2022-09-28T04:25:28.615Z,4.25
2022-09-28T04:26:30.558Z,4.10
2022-09-28T04:27:50.944Z,3.65
2022-09-28T04:29:11.457Z,3.40
2022-09-28T04:30:13.457Z,4.13
2022-09-28T04:31:18.063Z,3.78
2022-09-28T04:32:19.753Z,4.10
2022-09-28T04:33:21.420Z,4.22
2022-09-28T04:34:23.667Z,4.05
2022-09-28T04:35:25.407Z,5.05
2022-09-28T04:36:27.053Z,4.20
2022-09-28T04:37:31.328Z,4.13
2022-09-28T04:38:51.930Z,4.00
2022-09-28T04:39:54.729Z,4.20
2022-09-28T04:40:56.415Z,4.00
2022-09-28T04:41:58.130Z,3.65
2022-09-28T04:42:59.789Z,4.03
2022-09-28T04:44:01.864Z,3.60
2022-09-28T04:45:04.980Z,3.80
2022-09-28T04:46:06.977Z,3.40
2022-09-28T04:47:08.705Z,3.53
2022-09-28T04:48:10.376Z,3.78
2022-09-28T04:49:12.166Z,3.55
2022-09-28T04:50:13.923Z,3.95
2022-09-28T04:51:15.673Z,3.53
2022-09-28T04:52:18.561Z,4.28
2022-09-28T04:53:20.995Z,3.65
2022-09-28T04:54:22.675Z,3.20
2022-09-28T04:55:24.465Z,3.30
2022-09-28T04:56:26.149Z,3.70
2022-09-28T04:57:27.868Z,3.65
2022-09-28T04:58:31.031Z,3.65
2022-09-28T04:59:32.700Z,3.40
2022-09-28T05:00:35.244Z,3.78
2022-09-28T05:01:37.148Z,3.30
2022-09-28T05:02:39.282Z,3.15
2022-09-28T05:03:41.996Z,3.10
2022-09-28T05:04:43.668Z,3.17
2022-09-28T05:05:45.925Z,3.20
2022-09-28T05:06:47.555Z,2.90
2022-09-28T05:07:49.223Z,2.95
2022-09-28T05:08:50.885Z,2.63
2022-09-28T05:09:53.001Z,2.63
2022-09-28T05:11:00.148Z,2.70
2022-09-28T05:12:02.065Z,2.80
2022-09-28T05:13:03.758Z,2.53
2022-09-28T05:14:06.081Z,2.70
2022-09-28T05:15:08.007Z,2.63
2022-09-28T05:16:10.638Z,2.70
2022-09-28T05:17:12.332Z,2.50
2022-09-28T05:18:14.333Z,3.03
2022-09-28T05:19:16.113Z,2.45
2022-09-28T05:20:17.790Z,2.55
2022-09-28T05:21:20.218Z,2.35
2022-09-28T05:22:21.897Z,2.53
2022-09-28T05:23:23.577Z,2.20
2022-09-28T05:24:25.223Z,2.40
2022-09-28T05:25:26.868Z,2.10
2022-09-28T05:26:28.533Z,2.60
2022-09-28T05:27:30.225Z,2.10
2022-09-28T05:28:33.494Z,2.20
2022-09-28T05:29:35.140Z,2.22
2022-09-28T05:30:37.312Z,2.30
2022-09-28T05:31:39.054Z,2.30
2022-09-28T05:32:44.439Z,2.47
2022-09-28T05:33:46.094Z,2.22
2022-09-28T05:34:47.826Z,2.65
2022-09-28T05:35:53.823Z,2.05
2022-09-28T05:36:56.930Z,2.00
2022-09-28T05:38:04.651Z,2.53
2022-09-28T05:39:06.975Z,2.40
2022-09-28T05:40:09.301Z,2.25
2022-09-28T05:41:11.150Z,2.40
2022-09-28T05:42:12.836Z,2.17
2022-09-28T05:43:14.508Z,2.20
2022-09-28T05:44:16.495Z,2.97
2022-09-28T05:45:18.459Z,2.35
2022-09-28T05:46:21.341Z,2.40
2022-09-28T05:47:23.028Z,2.35
2022-09-28T05:48:25.209Z,2.45
2022-09-28T05:49:29.331Z,2.47
2022-09-28T05:50:31.129Z,2.30
2022-09-28T05:51:32.794Z,2.35
2022-09-28T05:52:34.572Z,2.22
2022-09-28T05:53:36.609Z,2.60
2022-09-28T05:54:38.339Z,2.47
2022-09-28T05:55:40.143Z,2.33
2022-09-28T05:56:41.867Z,2.38
2022-09-28T05:57:43.538Z,2.45
2022-09-28T05:58:45.227Z,2.83
2022-09-28T05:59:47.034Z,2.20
2022-09-28T06:00:55.048Z,2.38
2022-09-28T06:01:56.708Z,2.50
2022-09-28T06:03:00.194Z,2.50
2022-09-28T06:04:01.846Z,2.50
2022-09-28T06:05:03.750Z,2.90
2022-09-28T06:06:05.551Z,3.17
2022-09-28T06:07:07.305Z,2.97
2022-09-28T06:08:13.412Z,3.10
2022-09-28T06:09:15.100Z,2.92
2022-09-28T06:10:16.821Z,2.83
2022-09-28T06:11:18.863Z,2.55
2022-09-28T06:12:20.545Z,2.40
2022-09-28T06:13:22.252Z,2.65
2022-09-28T06:14:24.171Z,2.50
2022-09-28T06:15:29.857Z,2.50
2022-09-28T06:16:31.594Z,2.60
2022-09-28T06:17:33.276Z,2.10
2022-09-28T06:18:35.260Z,2.22
2022-09-28T06:19:36.901Z,2.20
2022-09-28T06:20:41.420Z,2.22
2022-09-28T06:21:43.121Z,2.80
2022-09-28T06:22:44.803Z,2.33
2022-09-28T06:23:49.222Z,2.33
2022-09-28T06:24:51.200Z,2.30
2022-09-28T06:25:52.844Z,2.30
2022-09-28T06:26:54.613Z,1.88
2022-09-28T06:28:15.120Z,2.40
2022-09-28T06:29:19.656Z,2.38
2022-09-28T06:30:22.344Z,2.20
2022-09-28T06:31:25.121Z,1.83
2022-09-28T06:32:29.337Z,1.98
2022-09-28T06:33:31.072Z,2.20
2022-09-28T06:34:32.748Z,2.42
2022-09-28T06:35:35.630Z,2.30
2022-09-28T06:36:37.308Z,2.20
2022-09-28T06:37:39.031Z,2.28
2022-09-28T06:38:40.750Z,1.83
2022-09-28T06:39:42.414Z,2.10
2022-09-28T06:40:44.250Z,1.90
2022-09-28T06:41:45.984Z,1.90
2022-09-28T06:43:10.673Z,1.77
2022-09-28T06:44:12.366Z,2.00
2022-09-28T06:45:14.158Z,2.40
2022-09-28T06:46:15.863Z,1.80
2022-09-28T06:47:17.737Z,2.05
2022-09-28T06:48:19.816Z,2.20
2022-09-28T06:49:22.270Z,2.13
2022-09-28T06:50:31.138Z,2.13
2022-09-28T06:51:33.104Z,2.33
2022-09-28T06:52:34.795Z,2.30
2022-09-28T06:53:36.456Z,2.17
2022-09-28T06:54:38.115Z,2.08
2022-09-28T06:55:41.168Z,2.50
2022-09-28T06:56:42.814Z,2.50
2022-09-28T06:57:44.658Z,2.20
2022-09-28T06:58:46.348Z,2.20
2022-09-28T06:59:48.019Z,2.38
2022-09-28T07:00:53.284Z,2.33
2022-09-28T07:01:54.982Z,2.40
2022-09-28T07:02:57.256Z,2.80
2022-09-28T07:03:59.005Z,2.38
2022-09-28T07:05:00.684Z,2.75
2022-09-28T07:06:02.849Z,2.58
2022-09-28T07:07:04.864Z,2.38
2022-09-28T07:08:06.598Z,2.63
2022-09-28T07:09:27.758Z,2.55
2022-09-28T07:10:31.444Z,2.60
2022-09-28T07:11:44.471Z,2.38
2022-09-28T07:12:47.576Z,2.80
2022-09-28T07:13:51.181Z,2.75
2022-09-28T07:14:57.404Z,2.78
2022-09-28T07:16:02.225Z,2.55
2022-09-28T07:17:13.591Z,2.47
2022-09-28T07:18:17.993Z,3.20
2022-09-28T07:19:19.690Z,2.90
2022-09-28T07:20:21.380Z,2.58
2022-09-28T07:21:29.869Z,2.75
2022-09-28T07:22:42.401Z,2.50
2022-09-28T07:23:52.834Z,2.40
2022-09-28T07:24:55.666Z,2.70
2022-09-28T07:25:58.351Z,2.75
2022-09-28T07:27:00.006Z,2.58
2022-09-28T07:28:02.814Z,2.53
2022-09-28T07:29:05.001Z,2.65
2022-09-28T07:30:07.363Z,2.58
2022-09-28T07:31:09.766Z,2.72
2022-09-28T07:32:11.497Z,2.30
2022-09-28T07:33:16.012Z,2.55
2022-09-28T07:34:18.626Z,2.50
2022-09-28T07:35:20.486Z,2.50
2022-09-28T07:36:22.965Z,2.60
2022-09-28T07:37:26.660Z,2.50
2022-09-28T07:38:28.368Z,2.90
2022-09-28T07:39:30.022Z,3.10
2022-09-28T07:40:52.442Z,2.55
2022-09-28T07:41:56.763Z,3.10
2022-09-28T07:43:07.313Z,2.70
2022-09-28T07:44:08.970Z,2.53
2022-09-28T07:45:11.185Z,3.13
2022-09-28T07:46:13.035Z,2.70
2022-09-28T07:47:15.019Z,3.20
2022-09-28T07:48:17.350Z,3.13
2022-09-28T07:49:19.478Z,3.55
2022-09-28T07:50:21.649Z,3.03
2022-09-28T07:51:23.326Z,4.95
2022-09-28T07:52:26.473Z,6.80
2022-09-28T07:53:28.715Z,7.28
2022-09-28T07:54:31.417Z,6.38
2022-09-28T07:55:33.210Z,5.78
2022-09-28T07:56:35.153Z,6.93
2022-09-28T07:57:36.865Z,6.55
2022-09-28T07:58:39.665Z,7.10
2022-09-28T07:59:41.331Z,6.32
2022-09-28T08:00:45.112Z,6.32
2022-09-28T08:01:49.667Z,6.80
2022-09-28T08:02:51.616Z,6.43
2022-09-28T08:03:56.411Z,6.72
2022-09-28T08:04:58.289Z,6.63
2022-09-28T08:06:01.294Z,6.05
2022-09-28T08:07:03.698Z,5.38
2022-09-28T08:08:05.440Z,5.80
2022-09-28T08:09:07.129Z,5.72
2022-09-28T08:10:09.330Z,5.32
2022-09-28T08:11:16.971Z,4.20
2022-09-28T08:12:19.845Z,3.88
2022-09-28T08:13:23.561Z,3.72
2022-09-28T08:14:28.695Z,3.60
2022-09-28T08:15:37.151Z,3.30
2022-09-28T08:16:38.827Z,3.85
2022-09-28T08:17:46.302Z,4.30
2022-09-28T08:18:51.110Z,3.80
2022-09-28T08:20:11.520Z,3.30
2022-09-28T08:21:31.476Z,3.60
2022-09-28T08:22:33.212Z,3.53
2022-09-28T08:23:34.863Z,3.47
2022-09-28T08:24:36.495Z,2.80
2022-09-28T08:25:38.382Z,2.47
2022-09-28T08:26:40.041Z,2.33
2022-09-28T08:27:41.784Z,2.90
2022-09-28T08:28:45.277Z,2.30
2022-09-28T08:29:46.962Z,2.65
2022-09-28T08:30:49.138Z,2.58
2022-09-28T08:31:50.798Z,2.67
2022-09-28T08:32:52.497Z,2.88
2022-09-28T08:33:54.536Z,2.30
2022-09-28T08:34:56.187Z,2.20
2022-09-28T08:35:59.311Z,2.25
2022-09-28T08:37:00.977Z,2.40
2022-09-28T08:38:03.509Z,2.50
2022-09-28T08:39:05.310Z,2.40
2022-09-28T08:40:17.122Z,2.10
2022-09-28T08:42:12.469Z,2.17
2022-09-28T08:43:31.431Z,1.98
2022-09-28T08:45:49.243Z,2.38
2022-09-28T08:47:02.157Z,2.50
2022-09-28T08:48:35.607Z,2.35
2022-09-28T08:49:45.175Z,2.33
2022-09-28T08:51:10.838Z,2.50
2022-09-28T08:52:12.507Z,2.42
2022-09-28T08:53:36.013Z,2.28
2022-09-28T08:55:02.572Z,2.53
2022-09-28T08:56:12.118Z,2.15
2022-09-28T08:57:20.738Z,1.95
2022-09-28T08:58:32.482Z,1.80
2022-09-28T08:59:52.347Z,1.60
2022-09-28T09:00:54.634Z,1.73
2022-09-28T09:02:00.942Z,1.58
2022-09-28T09:03:06.784Z,1.58
2022-09-28T09:04:09.371Z,1.80
2022-09-28T09:05:14.926Z,1.90
2022-09-28T09:06:22.428Z,1.92
2022-09-28T09:07:33.107Z,1.70
2022-09-28T09:09:36.209Z,2.33
2022-09-28T09:10:50.001Z,1.80
2022-09-28T09:12:00.859Z,1.50
2022-09-28T09:13:28.606Z,1.80
2022-09-28T09:15:07.092Z,1.60
2022-09-28T09:16:17.845Z,1.90
2022-09-28T09:18:37.378Z,2.17
2022-09-28T09:20:03.591Z,1.90
2022-09-28T09:21:18.462Z,2.00
2022-09-28T09:22:38.766Z,1.88
2022-09-28T09:24:24.846Z,2.05
2022-09-28T09:25:28.653Z,1.65
2022-09-28T09:26:40.434Z,1.75
2022-09-28T09:28:04.674Z,2.10
2022-09-28T09:29:25.188Z,1.77
2022-09-28T09:30:31.732Z,1.55
2022-09-28T09:32:10.816Z,1.63
2022-09-28T09:33:15.990Z,1.52
2022-09-28T09:34:46.857Z,1.60
2022-09-28T09:35:58.999Z,1.65
2022-09-28T09:37:22.504Z,1.83
2022-09-28T09:38:48.937Z,1.67
2022-09-28T09:40:26.362Z,1.55
2022-09-28T09:41:51.215Z,1.67
2022-09-28T09:43:11.324Z,1.73
2022-09-28T09:44:38.911Z,1.90
2022-09-28T09:45:41.110Z,1.83
2022-09-28T09:47:02.149Z,1.80
2022-09-28T09:49:27.082Z,1.77
2022-09-28T09:50:32.705Z,1.80
2022-09-28T09:51:42.088Z,1.77
2022-09-28T09:52:55.390Z,5.80
2022-09-28T09:54:12.791Z,1.92
2022-09-28T09:55:21.741Z,1.80
2022-09-28T09:56:44.153Z,1.63
2022-09-28T09:57:54.641Z,1.70
2022-09-28T09:59:02.856Z,1.55
2022-09-28T10:00:04.915Z,1.83
2022-09-28T10:01:14.475Z,1.90
2022-09-28T10:02:36.468Z,1.80
2022-09-28T10:03:43.082Z,1.58
2022-09-28T10:04:47.243Z,1.75
2022-09-28T10:05:56.785Z,1.80
2022-09-28T10:07:03.875Z,2.00
2022-09-28T10:08:08.484Z,1.80
2022-09-28T10:09:17.036Z,1.80
2022-09-28T10:10:18.968Z,1.80
2022-09-28T10:11:27.670Z,1.85
2022-09-28T10:12:31.174Z,2.20
2022-09-28T10:13:33.042Z,1.90
2022-09-28T10:14:35.869Z,2.10
2022-09-28T10:15:37.580Z,2.00
2022-09-28T10:16:39.348Z,2.00
2022-09-28T10:17:41.210Z,2.40
2022-09-28T10:18:42.878Z,1.90
2022-09-28T10:19:44.728Z,2.25
2022-09-28T10:20:46.402Z,2.55
2022-09-28T10:21:53.167Z,1.90
2022-09-28T10:22:58.728Z,2.00
2022-09-28T10:24:04.095Z,2.03
2022-09-28T10:25:06.636Z,2.22
2022-09-28T10:26:24.905Z,2.03
2022-09-28T10:27:34.367Z,1.88
2022-09-28T10:28:45.436Z,2.10
2022-09-28T10:29:54.495Z,2.28
2022-09-28T10:30:56.448Z,2.00
2022-09-28T10:31:58.218Z,2.20
2022-09-28T10:33:01.507Z,2.10
2022-09-28T10:34:04.721Z,2.40
2022-09-28T10:35:18.678Z,2.28
2022-09-28T10:36:20.367Z,2.30
2022-09-28T10:37:22.530Z,2.10
2022-09-28T10:38:24.730Z,2.35
2022-09-28T10:39:30.282Z,2.10
2022-09-28T10:40:37.862Z,2.33
2022-09-28T10:41:49.909Z,2.28
2022-09-28T10:42:59.501Z,2.00
2022-09-28T10:44:07.272Z,2.50
2022-09-28T10:45:23.463Z,2.88
2022-09-28T10:46:25.472Z,2.00
2022-09-28T10:47:33.459Z,2.47
2022-09-28T10:48:38.962Z,2.50
2022-09-28T10:49:47.291Z,2.17
2022-09-28T10:51:08.726Z,2.10
2022-09-28T10:52:29.199Z,2.20
2022-09-28T10:53:30.999Z,2.42
2022-09-28T10:54:32.757Z,3.03
2022-09-28T10:55:37.018Z,2.60
2022-09-28T10:56:41.174Z,2.97
2022-09-28T10:57:42.845Z,2.88
2022-09-28T10:58:44.831Z,3.10
2022-09-28T10:59:47.138Z,2.65
2022-09-28T11:00:49.581Z,2.90
2022-09-28T11:02:09.673Z,2.58
2022-09-28T11:03:52.786Z,2.22
2022-09-28T11:04:58.183Z,2.65
2022-09-28T11:06:10.849Z,2.38
2022-09-28T11:07:27.812Z,2.08
2022-09-28T11:08:38.236Z,2.20
2022-09-28T11:09:45.357Z,2.25
2022-09-28T11:10:47.551Z,2.38
2022-09-28T11:11:49.276Z,2.83
2022-09-28T11:12:51.562Z,1.80
2022-09-28T11:14:01.259Z,1.63
2022-09-28T11:15:06.461Z,1.70
2022-09-28T11:16:14.191Z,2.15
2022-09-28T11:17:32.830Z,1.90
2022-09-28T11:18:34.755Z,2.00
2022-09-28T11:19:37.106Z,1.65
2022-09-28T11:20:44.121Z,1.60
2022-09-28T11:21:46.889Z,1.90
2022-09-28T11:22:51.619Z,1.80
2022-09-28T11:23:58.625Z,2.38
2022-09-28T11:25:17.503Z,1.70
2022-09-28T11:26:19.401Z,1.92
2022-09-28T11:27:26.736Z,2.00
2022-09-28T11:28:37.620Z,2.35
2022-09-28T11:30:53.715Z,2.58
2022-09-28T11:32:01.039Z,2.30
2022-09-28T11:33:19.233Z,1.92
2022-09-28T11:34:41.812Z,1.85
2022-09-28T11:36:11.411Z,2.05
2022-09-28T11:37:13.618Z,2.15
2022-09-28T11:38:21.138Z,1.92
2022-09-28T11:39:49.879Z,1.70
2022-09-28T11:41:09.414Z,2.03
2022-09-28T11:42:40.312Z,1.60
2022-09-28T11:44:00.657Z,1.90
2022-09-28T11:45:18.339Z,2.13
2022-09-28T11:46:38.844Z,1.95
2022-09-28T11:47:47.265Z,1.77
2022-09-28T11:48:56.599Z,1.92
2022-09-28T11:50:24.321Z,2.20
2022-09-28T11:51:36.436Z,1.90
2022-09-28T11:52:55.076Z,1.77
2022-09-28T11:54:05.234Z,1.70
2022-09-28T11:55:18.040Z,1.95
2022-09-28T11:56:32.692Z,1.70
2022-09-28T11:57:40.952Z,1.83
2022-09-28T11:58:50.333Z,1.90
2022-09-28T11:59:51.953Z,1.70
2022-09-28T12:01:03.813Z,1.83
2022-09-28T12:02:16.862Z,1.60
2022-09-28T12:03:36.213Z,1.70
2022-09-28T12:04:44.935Z,1.90
2022-09-28T12:05:59.749Z,2.05
2022-09-28T12:07:12.098Z,2.15
2022-09-28T12:08:25.698Z,1.75
2022-09-28T12:09:56.388Z,1.83
2022-09-28T12:11:12.576Z,1.88
2022-09-28T12:12:40.741Z,1.90
2022-09-28T12:13:48.079Z,1.88
2022-09-28T12:14:55.180Z,2.25
2022-09-28T12:17:54.909Z,1.80
2022-09-28T12:19:03.430Z,2.00
2022-09-28T12:20:17.428Z,2.05
2022-09-28T12:21:25.398Z,1.83
2022-09-28T12:22:38.208Z,1.90
2022-09-28T12:23:42.128Z,1.95
2022-09-28T12:24:50.949Z,1.58
2022-09-28T12:25:59.514Z,1.75
2022-09-28T12:27:10.266Z,1.80
2022-09-28T12:28:31.658Z,1.98
2022-09-28T12:29:41.278Z,1.98
2022-09-28T12:30:45.448Z,1.90
2022-09-28T12:32:13.065Z,1.90
2022-09-28T12:33:15.541Z,2.20
2022-09-28T12:34:17.326Z,2.25
2022-09-28T12:35:39.187Z,1.85
2022-09-28T12:36:54.991Z,2.00
2022-09-28T12:38:21.407Z,1.80
2022-09-28T12:39:56.421Z,2.22
2022-09-28T12:41:07.226Z,2.33
2022-09-28T12:42:21.608Z,1.80
2022-09-28T12:43:54.737Z,2.40
2022-09-28T12:45:21.881Z,2.10
2022-09-28T12:46:46.100Z,1.80
2022-09-28T12:48:22.977Z,2.03
2022-09-28T12:51:47.475Z,2.10
2022-09-28T12:52:52.050Z,1.55
2022-09-28T12:54:12.125Z,1.92
2022-09-28T12:55:16.661Z,2.15
2022-09-28T12:56:27.297Z,2.00
2022-09-28T12:57:51.951Z,2.30
2022-09-28T12:59:08.352Z,2.03
2022-09-28T13:00:23.007Z,1.90
2022-09-28T13:01:47.524Z,1.90
2022-09-28T13:03:07.994Z,1.50
2022-09-28T13:04:23.249Z,1.73
2022-09-28T13:06:00.145Z,1.92
2022-09-28T13:07:26.288Z,1.85
2022-09-28T13:08:36.703Z,1.80
2022-09-28T13:09:55.167Z,1.45
2022-09-28T13:11:01.345Z,1.80
2022-09-28T13:12:38.128Z,1.63
2022-09-28T13:13:39.708Z,1.60
2022-09-28T13:15:16.459Z,1.50
2022-09-28T13:17:00.409Z,1.80
2022-09-28T13:18:02.343Z,1.73
2022-09-28T13:19:03.929Z,1.88
2022-09-28T13:20:15.785Z,1.70
2022-09-28T13:21:28.380Z,1.40
2022-09-28T13:22:56.610Z,1.50
2022-09-28T13:24:14.760Z,1.70
2022-09-28T13:25:29.072Z,1.70
2022-09-28T13:26:38.170Z,1.58
2022-09-28T13:27:46.320Z,1.70
2022-09-28T13:28:51.447Z,1.77
2022-09-28T13:29:55.699Z,1.52
2022-09-28T13:31:02.339Z,1.70
2022-09-28T13:32:05.387Z,1.73
2022-09-28T13:33:15.733Z,1.73
2022-09-28T13:34:29.596Z,1.98
2022-09-28T13:35:33.419Z,1.80
2022-09-28T13:36:37.109Z,1.65
2022-09-28T13:37:38.754Z,1.30
2022-09-28T13:38:49.872Z,1.98
2022-09-28T13:39:53.433Z,1.38
2022-09-28T13:41:04.248Z,1.60
2022-09-28T13:42:08.292Z,1.35
2022-09-28T13:43:25.380Z,1.52
2022-09-28T13:45:00.348Z,1.55
2022-09-28T13:46:18.925Z,1.60
2022-09-28T13:47:51.742Z,1.40
2022-09-28T13:49:06.272Z,1.58
2022-09-28T13:50:38.007Z,1.38
2022-09-28T13:51:57.424Z,1.50
2022-09-28T13:53:13.540Z,1.40
2022-09-28T13:54:41.340Z,1.50
2022-09-28T13:56:20.752Z,1.30
2022-09-28T13:57:37.347Z,1.50
2022-09-28T13:58:45.215Z,1.40
2022-09-28T14:00:22.374Z,1.20
2022-09-28T14:01:28.961Z,1.65
2022-09-28T14:02:33.522Z,1.48
2022-09-28T14:03:53.175Z,1.42
2022-09-28T14:05:00.182Z,1.35
2022-09-28T14:06:23.276Z,1.58
2022-09-28T14:07:46.896Z,1.52
2022-09-28T14:09:24.253Z,1.40
2022-09-28T14:10:52.301Z,1.65
2022-09-28T14:12:02.421Z,1.63
2022-09-28T14:13:06.605Z,1.60
2022-09-28T14:14:14.225Z,1.50
2022-09-28T14:15:37.700Z,1.42
2022-09-28T14:16:41.416Z,1.35
2022-09-28T14:17:54.704Z,1.50
2022-09-28T14:19:05.961Z,1.42
2022-09-28T14:20:13.980Z,1.58
2022-09-28T14:21:53.016Z,1.50
2022-09-28T14:23:01.806Z,1.60
2022-09-28T14:24:42.653Z,1.60
2022-09-28T14:26:04.584Z,1.50
2022-09-28T14:27:29.013Z,1.30
2022-09-28T14:28:39.747Z,1.50
2022-09-28T14:29:41.679Z,1.30
2022-09-28T14:30:43.410Z,1.40
2022-09-28T14:31:45.430Z,1.38
2022-09-28T14:32:58.568Z,1.40
2022-09-28T14:34:03.560Z,1.13
2022-09-28T14:35:18.744Z,1.65
2022-09-28T14:36:46.172Z,1.23
2022-09-28T14:38:08.581Z,1.20
2022-09-28T14:39:39.227Z,1.60
2022-09-28T14:41:11.078Z,1.55
2022-09-28T14:42:17.656Z,1.40
2022-09-28T14:43:35.778Z,1.70
2022-09-28T14:45:06.303Z,1.60
2022-09-28T14:46:11.858Z,1.52
2022-09-28T14:47:37.914Z,1.70
2022-09-28T14:49:06.989Z,1.52
2022-09-28T14:50:34.773Z,1.40
2022-09-28T14:51:39.193Z,1.40
2022-09-28T14:52:46.463Z,1.50
2022-09-28T14:53:51.133Z,1.63
2022-09-28T14:54:54.538Z,1.67
2022-09-28T14:55:59.856Z,1.50
2022-09-28T14:57:08.161Z,1.77
2022-09-28T14:58:19.662Z,1.38
2022-09-28T14:59:25.056Z,1.50
2022-09-28T15:00:30.502Z,1.40
2022-09-28T15:01:35.533Z,1.50
2022-09-28T15:02:38.794Z,1.83
2022-09-28T15:03:42.774Z,1.60
2022-09-28T15:04:50.000Z,1.90
2022-09-28T15:05:52.414Z,1.65
2022-09-28T15:06:54.316Z,1.60
2022-09-28T15:07:56.227Z,1.67
2022-09-28T15:08:57.865Z,1.63
2022-09-28T15:10:02.249Z,1.77
2022-09-28T15:11:04.089Z,1.65
2022-09-28T15:12:18.135Z,1.60
2022-09-28T15:13:25.047Z,1.45
2022-09-28T15:14:31.906Z,1.67
2022-09-28T15:15:38.338Z,2.00
2022-09-28T15:16:40.634Z,1.52
2022-09-28T15:17:48.109Z,1.80
2022-09-28T15:19:03.893Z,1.58
2022-09-28T15:20:25.784Z,1.70
2022-09-28T15:21:39.990Z,1.83
2022-09-28T15:22:49.521Z,1.77
2022-09-28T15:23:51.293Z,1.42
2022-09-28T15:25:03.008Z,1.65